createdAt,value
2024-02-24T00:01:40.823Z,105356.00
2024-02-24T00:07:42.937Z,105357.00
2024-02-24T00:13:45.387Z,105355.00
2024-02-24T00:19:47.970Z,105351.00
2024-02-24T00:25:50.323Z,105358.00
2024-02-24T00:31:52.453Z,105356.00
2024-02-24T00:37:54.642Z,105353.00
2024-02-24T00:43:56.995Z,105353.00
2024-02-24T00:49:59.333Z,105347.00
2024-02-24T00:56:01.639Z,105353.00
2024-02-24T01:02:03.964Z,105349.00
2024-02-24T01:08:06.230Z,105352.00
2024-02-24T01:14:08.523Z,105354.00
2024-02-24T01:20:11.088Z,105356.00
2024-02-24T01:26:13.456Z,105347.00
2024-02-24T01:32:15.779Z,105351.00
2024-02-24T01:38:18.268Z,105355.00
2024-02-24T01:44:20.667Z,105352.00
2024-02-24T01:50:23.104Z,105354.00
2024-02-24T01:56:26.203Z,105350.00
2024-02-24T02:02:32.350Z,105351.00
2024-02-24T02:08:34.726Z,105353.00
2024-02-24T02:14:37.087Z,105351.00
2024-02-24T02:20:39.418Z,105350.00
2024-02-24T02:26:41.864Z,105352.00
2024-02-24T02:32:44.200Z,105347.00
2024-02-24T02:38:46.654Z,105349.00
2024-02-24T02:44:49.050Z,105346.00
2024-02-24T02:50:51.350Z,105350.00
2024-02-24T02:56:53.783Z,105352.00
2024-02-24T03:02:56.105Z,105355.00
2024-02-24T03:08:58.731Z,105350.00
2024-02-24T03:15:01.448Z,105350.00
2024-02-24T03:21:04.197Z,105353.00
2024-02-24T03:27:06.330Z,105352.00
2024-02-24T03:33:08.499Z,105354.00
2024-02-24T03:39:10.645Z,105355.00
2024-02-24T03:45:13.015Z,105354.00
2024-02-24T03:51:15.356Z,105354.00
2024-02-24T03:57:17.593Z,105353.00
2024-02-24T04:03:19.754Z,105350.00
2024-02-24T04:09:21.875Z,105354.00
2024-02-24T04:15:24.122Z,105349.00
2024-02-24T04:21:26.236Z,105353.00
2024-02-24T04:27:28.384Z,105354.00
2024-02-24T04:33:30.666Z,105349.00
2024-02-24T04:39:33.012Z,105350.00
2024-02-24T04:45:35.214Z,105351.00
2024-02-24T04:51:37.409Z,105349.00
2024-02-24T04:57:39.778Z,105353.00
2024-02-24T05:03:42.059Z,105354.00
2024-02-24T05:09:44.289Z,105348.00
2024-02-24T05:15:46.517Z,105349.00
2024-02-24T05:21:48.726Z,105351.00
2024-02-24T05:27:50.943Z,105349.00
2024-02-24T05:33:56.059Z,105350.00
2024-02-24T05:39:59.922Z,105350.00
2024-02-24T05:46:08.214Z,105356.00
2024-02-24T05:52:10.566Z,105354.00
2024-02-24T05:58:12.898Z,105356.00
2024-02-24T06:04:16.859Z,105355.00
2024-02-24T06:10:19.091Z,105358.00
2024-02-24T06:16:21.289Z,105358.00
2024-02-24T06:22:23.607Z,105362.00
2024-02-24T06:28:25.782Z,105362.00
2024-02-24T06:34:28.022Z,105360.00
2024-02-24T06:40:37.450Z,105363.00
2024-02-24T06:46:47.226Z,105363.00
2024-02-24T06:52:49.440Z,105370.00
2024-02-24T06:58:51.886Z,105367.00
2024-02-24T07:04:54.144Z,105378.00
2024-02-24T07:10:56.393Z,105379.00
2024-02-24T07:16:58.595Z,105380.00
2024-02-24T07:23:00.645Z,105384.00
2024-02-24T07:29:03.254Z,105381.00
2024-02-24T07:35:05.773Z,105381.00
2024-02-24T07:41:08.656Z,105378.00
2024-02-24T07:47:11.063Z,105383.00
2024-02-24T07:53:13.447Z,105383.00
2024-02-24T07:59:15.837Z,105381.00
2024-02-24T08:05:19.879Z,105385.00
2024-02-24T08:11:22.181Z,105386.00
2024-02-24T08:17:24.665Z,105383.00
2024-02-24T08:23:27.163Z,105382.00
2024-02-24T08:29:33.162Z,105383.00
2024-02-24T08:35:35.369Z,105385.00
2024-02-24T08:41:38.645Z,105384.00
2024-02-24T08:47:40.922Z,105382.00
2024-02-24T08:53:43.704Z,105386.00
2024-02-24T08:59:47.698Z,105385.00
2024-02-24T09:05:50.114Z,105381.00
2024-02-24T09:11:52.392Z,105384.00
2024-02-24T09:17:54.842Z,105380.00
2024-02-24T09:23:57.748Z,105383.00
2024-02-24T09:30:00.174Z,105383.00
2024-02-24T09:36:02.568Z,105375.00
2024-02-24T09:42:04.997Z,105381.00
2024-02-24T09:48:07.383Z,105378.00
2024-02-24T09:54:09.777Z,105374.00
2024-02-24T10:00:12.158Z,105372.00
2024-02-24T10:06:16.433Z,105376.00
2024-02-24T10:12:19.004Z,105373.00
2024-02-24T10:18:22.910Z,105372.00
2024-02-24T10:24:25.476Z,105375.00
2024-02-24T10:30:29.245Z,105375.00
2024-02-24T10:36:31.979Z,105376.00
2024-02-24T10:42:34.196Z,105376.00
2024-02-24T10:48:36.577Z,105375.00
2024-02-24T10:54:40.924Z,105374.00
2024-02-24T11:00:45.022Z,105373.00
2024-02-24T11:06:50.122Z,105376.00
2024-02-24T11:12:52.890Z,105374.00
2024-02-24T11:18:55.458Z,105371.00
2024-02-24T11:25:02.042Z,105377.00
2024-02-24T11:31:04.577Z,105378.00
2024-02-24T11:37:06.810Z,105383.00
2024-02-24T11:43:09.047Z,105383.00
2024-02-24T11:49:11.996Z,105384.00
2024-02-24T11:55:14.539Z,105386.00
2024-02-24T12:01:17.404Z,105380.00
2024-02-24T12:07:20.165Z,105382.00
2024-02-24T12:13:22.440Z,105379.00
2024-02-24T12:19:26.663Z,105381.00
2024-02-24T12:25:28.954Z,105383.00
2024-02-24T12:31:31.282Z,105378.00
2024-02-24T12:37:34.212Z,105374.00
2024-02-24T12:43:40.137Z,105377.00
2024-02-24T12:49:42.321Z,105375.00
2024-02-24T12:55:44.741Z,105381.00
2024-02-24T13:01:46.946Z,105374.00
2024-02-24T13:07:50.976Z,105370.00
2024-02-24T13:13:53.862Z,105378.00
2024-02-24T13:19:56.051Z,105373.00
2024-02-24T13:25:58.539Z,105372.00
2024-02-24T13:32:00.812Z,105380.00
2024-02-24T13:38:03.309Z,105379.00
2024-02-24T13:44:07.847Z,105374.00
2024-02-24T13:50:09.987Z,105371.00
2024-02-24T13:56:12.254Z,105374.00
2024-02-24T14:02:14.673Z,105367.00
2024-02-24T14:08:16.850Z,105371.00
2024-02-24T14:14:19.177Z,105370.00
2024-02-24T14:20:25.878Z,105369.00
2024-02-24T14:26:31.406Z,105363.00
2024-02-24T14:32:33.956Z,105367.00
2024-02-24T14:38:36.261Z,105369.00
2024-02-24T14:44:38.481Z,105366.00
2024-02-24T14:50:42.092Z,105365.00
2024-02-24T14:56:44.302Z,105368.00
2024-02-24T15:02:58.167Z,105366.00
2024-02-24T15:09:09.809Z,105368.00
2024-02-24T15:15:12.245Z,105376.00
2024-02-24T15:21:15.217Z,105370.00
2024-02-24T15:27:17.443Z,105368.00
2024-02-24T15:33:20.021Z,105366.00
2024-02-24T15:39:22.365Z,105366.00
2024-02-24T15:45:24.928Z,105369.00
2024-02-24T15:51:27.091Z,105363.00
2024-02-24T15:57:29.316Z,105364.00
2024-02-24T16:03:33.297Z,105363.00
2024-02-24T16:09:37.262Z,105364.00
2024-02-24T16:15:39.494Z,105365.00
2024-02-24T16:21:42.366Z,105363.00
2024-02-24T16:27:44.685Z,105364.00
2024-02-24T16:33:47.075Z,105359.00
2024-02-24T16:39:49.725Z,105363.00
2024-02-24T16:45:51.853Z,105363.00
2024-02-24T16:51:54.458Z,105359.00
2024-02-24T16:57:56.908Z,105362.00
2024-02-24T17:03:59.189Z,105364.00
2024-02-24T17:10:01.315Z,105358.00
2024-02-24T17:16:04.841Z,105363.00
2024-02-24T17:22:06.975Z,105362.00
2024-02-24T17:28:10.790Z,105363.00
2024-02-24T17:34:15.153Z,105359.00
2024-02-24T17:40:17.352Z,105359.00
2024-02-24T17:46:19.816Z,105363.00
2024-02-24T17:52:22.157Z,105359.00
2024-02-24T17:58:32.676Z,105363.00
2024-02-24T18:04:45.255Z,105365.00
2024-02-24T18:10:47.343Z,105362.00
2024-02-24T18:16:49.555Z,105360.00
2024-02-24T18:22:51.787Z,105361.00
2024-02-24T18:28:54.870Z,105359.00
2024-02-24T18:34:57.540Z,105365.00
2024-02-24T18:41:00.744Z,105361.00
2024-02-24T18:47:03.705Z,105357.00
2024-02-24T18:53:06.358Z,105359.00
2024-02-24T18:59:08.685Z,105358.00
2024-02-24T19:05:12.433Z,105361.00
2024-02-24T19:11:15.232Z,105365.00
2024-02-24T19:17:17.801Z,105357.00
2024-02-24T19:23:20.211Z,105359.00
2024-02-24T19:29:22.479Z,105359.00
2024-02-24T19:35:24.848Z,105356.00
2024-02-24T19:41:27.498Z,105361.00
2024-02-24T19:47:29.948Z,105361.00
2024-02-24T19:53:32.252Z,105359.00
2024-02-24T19:59:37.766Z,105360.00
2024-02-24T20:05:42.302Z,105360.00
2024-02-24T20:11:44.578Z,105362.00
2024-02-24T20:17:46.947Z,105359.00
2024-02-24T20:23:49.188Z,105360.00
2024-02-24T20:29:52.231Z,105355.00
2024-02-24T20:35:54.521Z,105360.00
2024-02-24T20:41:56.776Z,105365.00
2024-02-24T20:47:59.157Z,105364.00
2024-02-24T20:54:01.549Z,105360.00
2024-02-24T21:00:06.187Z,105361.00
2024-02-24T21:06:08.876Z,105358.00
2024-02-24T21:12:12.680Z,105358.00
2024-02-24T21:18:15.408Z,105358.00
2024-02-24T21:24:17.883Z,105359.00
2024-02-24T21:30:20.237Z,105359.00
2024-02-24T21:36:22.440Z,105360.00
2024-02-24T21:42:27.266Z,105358.00
2024-02-24T21:48:29.509Z,105361.00
2024-02-24T21:54:31.899Z,105359.00
2024-02-24T22:00:34.121Z,105364.00
2024-02-24T22:06:38.750Z,105363.00
2024-02-24T22:12:41.132Z,105361.00
2024-02-24T22:18:45.285Z,105362.00
2024-02-24T22:24:48.848Z,105361.00
2024-02-24T22:30:51.339Z,105361.00
2024-02-24T22:36:53.527Z,105358.00
2024-02-24T22:42:55.867Z,105360.00
2024-02-24T22:48:58.084Z,105359.00
2024-02-24T22:55:00.352Z,105359.00
2024-02-24T23:01:02.879Z,105358.00
2024-02-24T23:07:05.329Z,105360.00
2024-02-24T23:13:07.617Z,105361.00
2024-02-24T23:19:10.521Z,105357.00
2024-02-24T23:25:12.922Z,105359.00
2024-02-24T23:31:15.340Z,105358.00
2024-02-24T23:37:17.578Z,105356.00
2024-02-24T23:43:19.847Z,105363.00
2024-02-24T23:49:22.247Z,105360.00
2024-02-24T23:55:24.712Z,105359.00
